createdAt,value
2022-10-09T00:01:03.378Z,8.61
2022-10-09T00:03:31.047Z,8.56
2022-10-09T00:05:58.978Z,8.50
2022-10-09T00:08:27.157Z,8.50
2022-10-09T00:10:55.988Z,8.45
2022-10-09T00:13:23.893Z,8.50
2022-10-09T00:15:52.802Z,8.43
2022-10-09T00:18:20.323Z,8.36
2022-10-09T00:20:48.324Z,8.32
2022-10-09T00:23:17.448Z,8.08
2022-10-09T00:25:52.693Z,8.02
2022-10-09T00:28:20.595Z,8.15
2022-10-09T00:30:48.232Z,8.24
2022-10-09T00:33:17.618Z,8.33
2022-10-09T00:35:45.193Z,8.36
2022-10-09T00:38:13.250Z,8.37
2022-10-09T00:40:41.200Z,8.33
2022-10-09T00:43:15.601Z,8.31
2022-10-09T00:45:48.798Z,8.22
2022-10-09T00:48:19.433Z,8.07
2022-10-09T00:50:52.723Z,7.70
2022-10-09T00:53:23.113Z,7.97
2022-10-09T00:55:52.336Z,7.94
2022-10-09T00:58:20.645Z,7.89
2022-10-09T01:00:48.536Z,7.86
2022-10-09T01:03:17.477Z,7.91
2022-10-09T01:05:54.300Z,7.94
2022-10-09T01:08:29.128Z,7.95
2022-10-09T01:11:02.545Z,8.00
2022-10-09T01:13:37.582Z,7.94
2022-10-09T01:16:11.813Z,7.81
2022-10-09T01:18:48.264Z,7.83
2022-10-09T01:21:20.821Z,7.73
2022-10-09T01:23:58.427Z,7.67
2022-10-09T01:26:36.769Z,7.76
2022-10-09T01:29:09.120Z,7.73
2022-10-09T01:31:41.751Z,7.70
2022-10-09T01:34:11.509Z,7.77
2022-10-09T01:36:40.692Z,7.82
2022-10-09T01:39:10.969Z,7.79
2022-10-09T01:41:39.043Z,7.58
2022-10-09T01:44:18.079Z,7.55
2022-10-09T01:46:46.147Z,7.43
2022-10-09T01:49:26.130Z,7.53
2022-10-09T01:52:00.039Z,7.52
2022-10-09T01:54:35.797Z,7.53
2022-10-09T01:57:07.823Z,7.62
2022-10-09T01:59:40.560Z,7.48
2022-10-09T02:02:08.838Z,7.31
2022-10-09T02:04:39.787Z,7.13
2022-10-09T02:07:07.494Z,7.32
2022-10-09T02:09:36.373Z,7.45
2022-10-09T02:12:08.740Z,7.51
2022-10-09T02:14:39.368Z,7.56
2022-10-09T02:17:10.235Z,7.59
2022-10-09T02:19:42.707Z,7.55
2022-10-09T02:22:15.916Z,7.54
2022-10-09T02:24:44.545Z,7.43
2022-10-09T02:27:13.072Z,7.20
2022-10-09T02:29:43.305Z,7.32
2022-10-09T02:32:11.747Z,7.40
2022-10-09T02:34:39.326Z,7.46
2022-10-09T02:37:08.038Z,7.38
2022-10-09T02:39:35.652Z,7.51
2022-10-09T02:42:03.313Z,7.53
2022-10-09T02:44:30.851Z,7.59
2022-10-09T02:46:59.720Z,7.49
2022-10-09T02:49:27.284Z,7.39
2022-10-09T02:51:54.971Z,7.54
2022-10-09T02:54:22.496Z,7.56
2022-10-09T02:56:50.012Z,7.60
2022-10-09T02:59:17.645Z,7.66
2022-10-09T03:01:45.267Z,7.62
2022-10-09T03:04:14.432Z,7.75
2022-10-09T03:06:41.972Z,8.05
2022-10-09T03:09:09.484Z,8.16
2022-10-09T03:11:36.995Z,8.27
2022-10-09T03:14:04.559Z,8.18
2022-10-09T03:16:32.168Z,8.09
2022-10-09T03:19:00.084Z,8.16
2022-10-09T03:21:29.819Z,8.21
2022-10-09T03:23:57.454Z,7.95
2022-10-09T03:26:26.847Z,8.09
2022-10-09T03:28:56.169Z,8.07
2022-10-09T03:31:51.143Z,8.24
2022-10-09T03:34:14.208Z,8.30
2022-10-09T03:36:43.440Z,8.48
2022-10-09T03:39:11.202Z,8.66
2022-10-09T03:41:38.724Z,8.71
2022-10-09T03:44:06.422Z,8.82
2022-10-09T03:46:34.055Z,8.85
2022-10-09T03:49:01.625Z,8.85
2022-10-09T03:51:29.136Z,8.68
2022-10-09T03:53:58.336Z,8.92
2022-10-09T03:56:25.865Z,8.71
2022-10-09T03:58:53.382Z,8.59
2022-10-09T04:01:21.118Z,8.61
2022-10-09T04:03:48.944Z,8.36
2022-10-09T04:06:16.707Z,8.45
2022-10-09T04:08:44.260Z,7.98
2022-10-09T04:11:13.149Z,7.98
2022-10-09T04:13:40.733Z,8.78
2022-10-09T04:16:12.539Z,9.50
2022-10-09T04:18:40.513Z,8.64
2022-10-09T04:21:08.332Z,8.33
2022-10-09T04:23:35.906Z,7.96
2022-10-09T04:26:03.431Z,7.92
2022-10-09T04:28:33.622Z,7.52
2022-10-09T04:31:01.413Z,7.03
2022-10-09T04:33:29.081Z,7.00
2022-10-09T04:35:57.211Z,7.34
2022-10-09T04:38:25.701Z,7.34
2022-10-09T04:40:56.887Z,7.26
2022-10-09T04:43:24.587Z,7.39
2022-10-09T04:45:53.533Z,7.60
2022-10-09T04:48:21.149Z,7.55
2022-10-09T04:50:49.031Z,7.79
2022-10-09T04:53:16.677Z,8.02
2022-10-09T04:55:45.337Z,8.10
2022-10-09T04:58:13.824Z,7.97
2022-10-09T05:00:42.657Z,8.31
2022-10-09T05:03:12.003Z,8.33
2022-10-09T05:05:39.997Z,8.79
2022-10-09T05:08:07.603Z,8.59
2022-10-09T05:10:35.221Z,7.94
2022-10-09T05:13:02.768Z,8.22
2022-10-09T05:15:30.288Z,8.45
2022-10-09T05:17:58.156Z,8.03
2022-10-09T05:20:27.044Z,7.58
2022-10-09T05:22:54.749Z,6.80
2022-10-09T05:25:22.277Z,6.35
2022-10-09T05:27:49.799Z,6.22
2022-10-09T05:30:17.386Z,6.27
2022-10-09T05:32:44.887Z,6.57
2022-10-09T05:35:12.475Z,7.09
2022-10-09T05:37:41.343Z,7.33
2022-10-09T05:40:09.995Z,6.86
2022-10-09T05:42:37.665Z,6.10
2022-10-09T05:45:05.399Z,6.51
2022-10-09T05:47:32.950Z,7.17
2022-10-09T05:50:00.489Z,6.98
2022-10-09T05:52:28.009Z,7.12
2022-10-09T05:54:57.177Z,8.01
2022-10-09T05:57:24.715Z,8.43
2022-10-09T05:59:52.265Z,7.54
2022-10-09T06:02:19.794Z,7.00
2022-10-09T06:04:47.339Z,7.89
2022-10-09T06:07:14.868Z,8.11
2022-10-09T06:09:42.492Z,7.16
2022-10-09T06:12:11.365Z,7.43
2022-10-09T06:14:38.877Z,8.04
2022-10-09T06:17:06.532Z,8.56
2022-10-09T06:19:34.080Z,8.66
2022-10-09T06:22:01.586Z,8.58
2022-10-09T06:24:29.700Z,8.92
2022-10-09T06:26:57.805Z,8.66
2022-10-09T06:29:26.777Z,8.36
2022-10-09T06:31:54.557Z,7.50
2022-10-09T06:34:22.209Z,7.14
2022-10-09T06:36:49.887Z,6.82
2022-10-09T06:39:17.512Z,6.84
2022-10-09T06:41:45.139Z,7.07
2022-10-09T06:44:17.161Z,6.89
2022-10-09T06:46:49.302Z,7.89
2022-10-09T06:49:16.825Z,8.24
2022-10-09T06:51:44.335Z,8.75
2022-10-09T06:54:13.965Z,9.50
2022-10-09T06:56:41.611Z,8.91
2022-10-09T06:59:09.737Z,8.58
2022-10-09T07:01:37.296Z,8.42
2022-10-09T07:04:08.222Z,8.29
2022-10-09T07:06:39.840Z,8.17
2022-10-09T07:09:09.295Z,8.31
2022-10-09T07:11:39.133Z,8.93
2022-10-09T07:14:08.254Z,9.29
2022-10-09T07:16:37.576Z,9.53
2022-10-09T07:19:08.410Z,9.87
2022-10-09T07:21:36.300Z,9.11
2022-10-09T07:24:05.489Z,8.95
2022-10-09T07:26:35.009Z,8.98
2022-10-09T07:29:03.295Z,8.77
2022-10-09T07:31:30.806Z,8.63
2022-10-09T07:33:58.389Z,8.26
2022-10-09T07:36:27.841Z,8.15
2022-10-09T07:38:57.400Z,8.05
2022-10-09T07:41:26.819Z,7.75
2022-10-09T07:43:54.695Z,7.97
2022-10-09T07:46:23.865Z,8.49
2022-10-09T07:48:51.598Z,8.68
2022-10-09T07:51:21.174Z,9.17
2022-10-09T07:53:50.471Z,9.53
2022-10-09T07:56:19.736Z,9.58
2022-10-09T07:58:50.059Z,9.08
2022-10-09T08:01:20.279Z,9.40
2022-10-09T08:03:48.703Z,9.35
2022-10-09T08:06:16.328Z,9.40
2022-10-09T08:08:44.498Z,9.49
2022-10-09T08:11:16.296Z,9.82
2022-10-09T08:13:45.164Z,9.51
2022-10-09T08:16:12.966Z,10.43
2022-10-09T08:18:40.483Z,10.60
2022-10-09T08:21:10.085Z,10.95
2022-10-09T08:23:37.775Z,11.67
2022-10-09T08:26:06.395Z,12.58
2022-10-09T08:28:35.432Z,13.02
2022-10-09T08:31:11.085Z,12.90
2022-10-09T08:33:38.589Z,13.68
2022-10-09T08:36:07.862Z,14.14
2022-10-09T08:38:47.117Z,14.41
2022-10-09T08:41:25.854Z,14.02
2022-10-09T08:44:02.185Z,14.13
2022-10-09T08:46:34.392Z,15.46
2022-10-09T08:49:05.309Z,16.44
2022-10-09T08:51:39.501Z,17.21
2022-10-09T08:54:20.264Z,16.26
2022-10-09T08:56:48.644Z,15.63
2022-10-09T08:59:17.524Z,14.33
2022-10-09T09:01:51.165Z,13.93
2022-10-09T09:04:39.696Z,14.36
2022-10-09T09:07:17.395Z,16.31
2022-10-09T09:09:54.072Z,17.25
2022-10-09T09:12:28.396Z,16.37
2022-10-09T09:15:18.711Z,16.57
2022-10-09T09:17:55.157Z,14.97
2022-10-09T09:20:26.546Z,14.48
2022-10-09T09:22:54.338Z,14.03
2022-10-09T09:25:24.933Z,14.35
2022-10-09T09:27:53.880Z,15.48
2022-10-09T09:30:28.799Z,16.07
2022-10-09T09:33:05.539Z,17.86
2022-10-09T09:35:38.744Z,16.58
2022-10-09T09:38:06.277Z,15.79
2022-10-09T09:40:37.301Z,17.24
2022-10-09T09:43:12.998Z,18.03
2022-10-09T09:45:43.735Z,18.08
2022-10-09T09:48:15.972Z,17.50
2022-10-09T09:50:53.079Z,16.92
2022-10-09T09:53:36.797Z,16.52
2022-10-09T09:56:05.442Z,16.34
2022-10-09T09:58:36.364Z,15.51
2022-10-09T10:01:07.591Z,15.51
2022-10-09T10:03:36.743Z,15.13
2022-10-09T10:06:04.817Z,15.25
2022-10-09T10:08:34.484Z,15.71
2022-10-09T10:11:06.095Z,16.02
2022-10-09T10:13:37.952Z,15.65
2022-10-09T10:16:09.269Z,15.53
2022-10-09T10:18:40.281Z,16.13
2022-10-09T10:21:12.272Z,16.38
2022-10-09T10:23:43.563Z,16.78
2022-10-09T10:26:27.995Z,17.31
2022-10-09T10:29:02.370Z,17.53
2022-10-09T10:31:39.668Z,17.81
2022-10-09T10:34:15.181Z,18.23
2022-10-09T10:36:42.853Z,19.04
2022-10-09T10:39:19.852Z,18.80
2022-10-09T10:41:52.275Z,19.26
2022-10-09T10:44:24.372Z,19.62
2022-10-09T10:46:59.974Z,19.22
2022-10-09T10:49:32.894Z,19.51
2022-10-09T10:52:15.501Z,19.69
2022-10-09T10:54:51.149Z,20.20
2022-10-09T10:57:25.064Z,19.88
2022-10-09T11:00:03.826Z,19.16
2022-10-09T11:03:03.493Z,20.02
2022-10-09T11:05:40.204Z,20.58
2022-10-09T11:08:22.280Z,20.08
2022-10-09T11:11:00.519Z,20.46
2022-10-09T11:13:33.178Z,20.23
2022-10-09T11:16:17.241Z,20.05
2022-10-09T11:19:04.642Z,20.57
2022-10-09T11:21:51.986Z,20.17
2022-10-09T11:24:33.503Z,19.64
2022-10-09T11:27:11.682Z,19.83
2022-10-09T11:29:44.948Z,19.87
2022-10-09T11:32:16.480Z,19.72
2022-10-09T11:34:49.542Z,19.64
2022-10-09T11:37:21.989Z,19.24
2022-10-09T11:39:49.478Z,19.00
2022-10-09T11:42:22.365Z,19.14
2022-10-09T11:45:02.008Z,19.70
2022-10-09T11:47:36.024Z,20.14
2022-10-09T11:50:32.766Z,20.77
2022-10-09T11:53:05.851Z,20.89
2022-10-09T11:55:34.861Z,20.49
2022-10-09T11:58:14.816Z,19.39
2022-10-09T12:00:43.508Z,19.01
2022-10-09T12:03:25.465Z,19.11
2022-10-09T12:06:04.484Z,19.40
2022-10-09T12:08:32.160Z,19.41
2022-10-09T12:11:08.142Z,20.11
2022-10-09T12:13:48.945Z,19.31
2022-10-09T12:16:47.114Z,19.32
2022-10-09T12:19:19.610Z,19.49
2022-10-09T12:21:52.666Z,19.28
2022-10-09T12:24:23.996Z,19.04
2022-10-09T12:26:54.097Z,18.94
2022-10-09T12:29:28.275Z,19.26
2022-10-09T12:31:59.950Z,19.92
2022-10-09T12:34:30.945Z,19.78
2022-10-09T12:37:11.248Z,19.83
2022-10-09T12:39:39.071Z,19.47
2022-10-09T12:42:09.065Z,19.23
2022-10-09T12:44:40.363Z,19.26
2022-10-09T12:47:14.060Z,19.37
2022-10-09T12:49:41.732Z,19.28
2022-10-09T12:52:16.821Z,18.92
2022-10-09T12:54:45.616Z,18.74
2022-10-09T12:57:16.437Z,18.64
2022-10-09T12:59:45.316Z,18.69
2022-10-09T13:02:16.179Z,18.88
2022-10-09T13:04:56.355Z,18.86
2022-10-09T13:07:27.927Z,18.70
2022-10-09T13:10:06.159Z,18.64
2022-10-09T13:12:35.536Z,18.69
2022-10-09T13:15:05.487Z,18.57
2022-10-09T13:17:35.263Z,18.69
2022-10-09T13:20:05.565Z,18.63
2022-10-09T13:22:35.980Z,18.28
2022-10-09T13:25:04.524Z,17.89
2022-10-09T13:27:34.928Z,17.80
2022-10-09T13:30:02.534Z,18.14
2022-10-09T13:32:30.912Z,18.40
2022-10-09T13:34:58.428Z,18.46
2022-10-09T13:37:27.276Z,18.14
2022-10-09T13:39:58.127Z,17.68
2022-10-09T13:42:28.139Z,17.53
2022-10-09T13:44:55.707Z,17.65
2022-10-09T13:47:24.642Z,17.38
2022-10-09T13:49:52.742Z,17.47
2022-10-09T13:52:20.304Z,17.33
2022-10-09T13:54:47.831Z,17.45
2022-10-09T13:57:16.693Z,17.45
2022-10-09T13:59:44.357Z,17.36
2022-10-09T14:02:12.627Z,17.58
2022-10-09T14:04:40.306Z,17.51
2022-10-09T14:07:07.883Z,17.28
2022-10-09T14:09:35.404Z,17.45
2022-10-09T14:12:02.979Z,17.66
2022-10-09T14:14:31.857Z,17.77
2022-10-09T14:16:59.343Z,17.77
2022-10-09T14:19:28.019Z,18.02
2022-10-09T14:21:55.834Z,18.28
2022-10-09T14:24:23.606Z,17.82
2022-10-09T14:26:51.855Z,17.67
2022-10-09T14:29:19.524Z,17.52
2022-10-09T14:31:50.854Z,16.84
2022-10-09T14:34:18.691Z,16.82
2022-10-09T14:36:46.427Z,16.88
2022-10-09T14:39:13.982Z,17.28
2022-10-09T14:41:41.749Z,17.06
2022-10-09T14:44:10.934Z,17.11
2022-10-09T14:46:39.250Z,16.57
2022-10-09T14:49:09.055Z,16.68
2022-10-09T14:51:38.134Z,16.72
2022-10-09T14:54:07.328Z,16.61
2022-10-09T14:56:35.558Z,16.48
2022-10-09T14:59:03.420Z,16.72
2022-10-09T15:01:31.153Z,16.76
2022-10-09T15:04:00.497Z,16.98
2022-10-09T15:06:29.906Z,17.16
2022-10-09T15:09:04.632Z,16.89
2022-10-09T15:11:34.379Z,17.12
2022-10-09T15:14:01.908Z,16.92
2022-10-09T15:16:29.420Z,16.94
2022-10-09T15:18:57.387Z,17.19
2022-10-09T15:21:27.065Z,16.97
2022-10-09T15:23:57.089Z,16.45
2022-10-09T15:26:26.537Z,16.91
2022-10-09T15:28:54.107Z,16.29
2022-10-09T15:31:25.059Z,16.63
2022-10-09T15:33:53.839Z,16.69
2022-10-09T15:36:22.276Z,16.49
2022-10-09T15:38:50.099Z,16.81
2022-10-09T15:41:23.393Z,16.85
2022-10-09T15:43:51.419Z,16.68
2022-10-09T15:46:19.157Z,16.64
2022-10-09T15:48:46.898Z,16.52
2022-10-09T15:51:14.611Z,16.37
2022-10-09T15:53:43.418Z,15.91
2022-10-09T15:56:13.628Z,15.92
2022-10-09T15:58:42.710Z,15.86
2022-10-09T16:01:12.150Z,15.77
2022-10-09T16:03:40.724Z,15.42
2022-10-09T16:06:10.891Z,15.07
2022-10-09T16:08:40.007Z,14.73
2022-10-09T16:13:45.999Z,13.92
2022-10-09T16:16:16.514Z,13.82
2022-10-09T16:18:44.324Z,13.77
2022-10-09T16:21:13.911Z,13.96
2022-10-09T16:23:41.517Z,14.21
2022-10-09T16:26:09.401Z,13.95
2022-10-09T16:28:37.710Z,13.34
2022-10-09T16:31:07.179Z,13.12
2022-10-09T16:33:34.704Z,12.97
2022-10-09T16:36:09.367Z,12.76
2022-10-09T16:38:37.039Z,12.60
2022-10-09T16:41:08.860Z,12.54
2022-10-09T16:43:37.396Z,12.55
2022-10-09T16:46:12.512Z,12.45
2022-10-09T16:48:40.044Z,12.34
2022-10-09T16:51:12.243Z,12.23
2022-10-09T16:53:40.189Z,12.11
2022-10-09T16:56:10.125Z,12.09
2022-10-09T16:58:37.992Z,12.06
2022-10-09T17:01:09.826Z,12.18
2022-10-09T17:03:41.231Z,12.14
2022-10-09T17:06:10.421Z,12.20
2022-10-09T17:08:38.255Z,12.18
2022-10-09T17:11:08.140Z,12.18
2022-10-09T17:13:35.741Z,12.07
2022-10-09T17:16:06.038Z,12.07
2022-10-09T17:18:33.704Z,12.09
2022-10-09T17:21:03.827Z,12.06
2022-10-09T17:23:31.631Z,12.14
2022-10-09T17:25:59.268Z,11.98
2022-10-09T17:28:26.896Z,11.99
2022-10-09T17:30:54.432Z,11.88
2022-10-09T17:33:21.939Z,11.89
2022-10-09T17:35:49.471Z,12.21
2022-10-09T17:38:18.327Z,12.23
2022-10-09T17:40:45.872Z,12.18
2022-10-09T17:43:13.357Z,12.16
2022-10-09T17:45:42.689Z,12.37
2022-10-09T17:48:10.927Z,12.71
2022-10-09T17:50:38.495Z,12.30
2022-10-09T17:53:06.276Z,12.28
2022-10-09T17:55:38.383Z,12.36
2022-10-09T17:58:05.903Z,12.17
2022-10-09T18:00:33.453Z,11.77
2022-10-09T18:03:00.965Z,11.75
2022-10-09T18:05:28.487Z,11.78
2022-10-09T18:07:56.029Z,11.88
2022-10-09T18:10:23.841Z,11.72
2022-10-09T18:12:52.711Z,11.52
2022-10-09T18:15:20.264Z,11.33
2022-10-09T18:17:48.048Z,11.41
2022-10-09T18:20:15.859Z,11.74
2022-10-09T18:22:43.488Z,11.73
2022-10-09T18:25:11.050Z,11.83
2022-10-09T18:27:38.560Z,11.74
2022-10-09T18:30:08.706Z,11.53
2022-10-09T18:32:36.203Z,11.48
2022-10-09T18:35:03.923Z,11.61
2022-10-09T18:37:31.433Z,11.65
2022-10-09T18:39:58.957Z,11.59
2022-10-09T18:42:26.499Z,11.36
2022-10-09T18:44:54.065Z,11.32
2022-10-09T18:47:28.283Z,11.46
2022-10-09T18:49:57.852Z,11.48
2022-10-09T18:52:26.134Z,11.74
2022-10-09T18:54:55.629Z,11.72
2022-10-09T18:57:25.970Z,11.87
2022-10-09T18:59:55.372Z,12.30
2022-10-09T19:02:26.773Z,12.40
2022-10-09T19:04:54.551Z,12.22
2022-10-09T19:07:22.079Z,12.32
2022-10-09T19:09:53.528Z,12.19
2022-10-09T19:12:22.562Z,12.23
2022-10-09T19:14:50.106Z,12.91
2022-10-09T19:17:17.641Z,12.65
2022-10-09T19:19:46.661Z,12.72
2022-10-09T19:22:16.601Z,12.82
2022-10-09T19:24:45.774Z,12.54
2022-10-09T19:27:13.613Z,12.69
2022-10-09T19:29:41.154Z,13.01
2022-10-09T19:32:08.704Z,13.25
2022-10-09T19:34:36.252Z,13.25
2022-10-09T19:39:37.915Z,13.08
2022-10-09T19:42:05.512Z,13.13
2022-10-09T19:44:33.023Z,13.16
2022-10-09T19:47:00.603Z,13.01
2022-10-09T19:49:31.503Z,12.48
2022-10-09T19:51:59.073Z,12.55
2022-10-09T19:54:28.056Z,12.86
2022-10-09T19:56:55.564Z,12.99
2022-10-09T19:59:23.078Z,12.97
2022-10-09T20:01:55.160Z,12.80
2022-10-09T20:04:24.811Z,12.57
2022-10-09T20:06:52.409Z,12.73
2022-10-09T20:09:20.717Z,12.72
2022-10-09T20:11:49.637Z,12.62
2022-10-09T20:14:17.195Z,12.62
2022-10-09T20:16:44.888Z,12.52
2022-10-09T20:19:12.751Z,12.54
2022-10-09T20:21:40.419Z,12.43
2022-10-09T20:24:08.310Z,12.40
2022-10-09T20:26:38.674Z,12.33
2022-10-09T20:29:11.330Z,12.29
2022-10-09T20:31:39.611Z,12.13
2022-10-09T20:34:07.255Z,11.95
2022-10-09T20:36:36.956Z,12.14
2022-10-09T20:39:07.835Z,11.79
2022-10-09T20:41:35.943Z,11.77
2022-10-09T20:44:04.764Z,11.98
2022-10-09T20:46:36.145Z,12.04
2022-10-09T20:49:05.303Z,11.98
2022-10-09T20:51:35.115Z,12.03
2022-10-09T20:54:03.220Z,11.91
2022-10-09T20:56:32.517Z,11.83
2022-10-09T20:59:01.305Z,11.86
2022-10-09T21:01:29.559Z,11.99
2022-10-09T21:03:59.439Z,11.97
2022-10-09T21:06:27.788Z,11.98
2022-10-09T21:08:55.907Z,11.89
2022-10-09T21:11:24.146Z,11.93
2022-10-09T21:13:52.209Z,11.97
2022-10-09T21:16:22.428Z,12.00
2022-10-09T21:18:54.547Z,12.20
2022-10-09T21:21:23.431Z,12.17
2022-10-09T21:23:51.986Z,11.35
2022-10-09T21:26:21.284Z,11.76
2022-10-09T21:28:48.845Z,12.13
2022-10-09T21:31:18.772Z,12.18
2022-10-09T21:33:46.728Z,12.40
2022-10-09T21:36:22.607Z,12.39
2022-10-09T21:38:51.472Z,12.24
2022-10-09T21:41:19.020Z,12.21
2022-10-09T21:43:46.599Z,12.27
2022-10-09T21:46:14.136Z,12.32
2022-10-09T21:48:41.684Z,12.44
2022-10-09T21:51:09.283Z,12.54
2022-10-09T21:53:36.800Z,12.53
2022-10-09T21:56:06.859Z,12.57
2022-10-09T21:58:34.418Z,12.51
2022-10-09T22:01:03.595Z,12.57
2022-10-09T22:03:34.098Z,12.61
2022-10-09T22:06:05.699Z,12.57
2022-10-09T22:08:33.305Z,12.60
2022-10-09T22:11:00.883Z,12.59
2022-10-09T22:13:29.753Z,12.63
2022-10-09T22:15:57.316Z,12.62
2022-10-09T22:18:24.847Z,12.57
2022-10-09T22:20:52.542Z,12.43
2022-10-09T22:23:21.433Z,12.51
2022-10-09T22:25:57.041Z,12.15
2022-10-09T22:28:25.014Z,12.19
2022-10-09T22:31:06.213Z,12.28
2022-10-09T22:33:34.133Z,12.39
2022-10-09T22:36:06.947Z,12.43
2022-10-09T22:38:35.208Z,12.36
2022-10-09T22:41:04.753Z,12.55
2022-10-09T22:43:32.279Z,12.48
2022-10-09T22:45:59.892Z,12.53
2022-10-09T22:48:28.745Z,12.68
2022-10-09T22:50:56.269Z,12.61
2022-10-09T22:53:23.930Z,12.60
2022-10-09T22:55:51.492Z,12.68
2022-10-09T22:58:18.985Z,12.76
2022-10-09T23:00:46.532Z,12.82
2022-10-09T23:03:14.119Z,12.85
2022-10-09T23:05:42.969Z,12.82
2022-10-09T23:08:10.511Z,12.64
2022-10-09T23:10:38.468Z,12.22
2022-10-09T23:13:06.241Z,11.64
2022-10-09T23:15:35.580Z,11.45
2022-10-09T23:18:03.645Z,11.60
2022-10-09T23:20:31.556Z,12.19
2022-10-09T23:23:00.440Z,12.31
2022-10-09T23:25:27.960Z,12.13
2022-10-09T23:27:55.473Z,12.33
2022-10-09T23:30:22.980Z,12.15
2022-10-09T23:32:52.989Z,12.27
2022-10-09T23:35:20.587Z,12.32
2022-10-09T23:37:48.113Z,12.59
2022-10-09T23:40:17.094Z,12.36
2022-10-09T23:42:44.596Z,12.52
2022-10-09T23:45:12.451Z,11.96
2022-10-09T23:47:41.270Z,12.18
2022-10-09T23:50:09.090Z,12.43
2022-10-09T23:52:36.612Z,12.46
2022-10-09T23:55:04.270Z,12.32
2022-10-09T23:57:34.740Z,12.04
